Time;durP1;ratioP1;P1;durP2;ratioP2;P2;SDS_P1;SDS_P2;PMS_P1;PMS_P2;Temp;Humidity;BMP_temperature;BMP_pressure;BME280_temperature;BME280_humidity;BME280_pressure;Samples;Min_cycle;Max_cycle;Signal;HPM_P1;HPM_P2
2024/02/18 00:00:41;;;;;;;16.80;10.60;;;;;;;9.65;76.25;99580.02;105004;1264;72760;-28
2024/02/18 00:03:10;;;;;;;17.50;11.10;;;;;;;9.47;76.82;99579.52;104921;1262;61117;-27
2024/02/18 00:13:17;;;;;;;11.50;7.50;;;;;;;8.43;82.93;99582.33;102741;1290;599070;-25
2024/02/18 00:15:45;;;;;;;13.10;7.60;;;;;;;8.78;81.46;99583.19;105043;1264;61137;-25
2024/02/18 00:18:13;;;;;;;15.30;9.40;;;;;;;8.87;80.60;99586.61;104836;1264;61171;-25
2024/02/18 00:20:41;;;;;;;13.60;9.40;;;;;;;8.71;81.43;99592.31;105083;1269;72218;-25
2024/02/18 00:23:09;;;;;;;11.80;7.30;;;;;;;8.41;83.03;99589.89;104985;1264;74335;-27
2024/02/18 00:25:37;;;;;;;11.90;7.80;;;;;;;9.05;80.65;99591.98;104794;1266;70177;-28
2024/02/18 00:28:05;;;;;;;13.70;9.40;;;;;;;9.00;79.82;99593.89;105043;1264;203378;-28
2024/02/18 00:30:33;;;;;;;11.70;9.10;;;;;;;8.71;81.49;99595.42;105184;1269;61169;-28
2024/02/18 00:33:01;;;;;;;10.10;7.60;;;;;;;8.75;81.68;99601.76;105179;1269;72208;-28
2024/02/18 00:35:29;;;;;;;11.90;8.40;;;;;;;8.51;82.73;99599.83;105254;1264;74322;-28
2024/02/18 00:37:57;;;;;;;11.40;7.60;;;;;;;8.65;82.51;99597.74;105159;1264;72657;-26
2024/02/18 00:40:25;;;;;;;9.30;7.00;;;;;;;9.05;80.41;99601.04;104835;1269;61163;-27
2024/02/18 00:42:53;;;;;;;12.30;7.40;;;;;;;9.04;80.07;99603.70;104838;1270;61179;-27
2024/02/18 00:52:57;;;;;;;11.10;6.70;;;;;;;8.94;80.26;99613.88;102748;1292;599437;-25
2024/02/18 01:03:03;;;;;;;7.80;6.10;;;;;;;8.70;82.08;99616.77;102812;1291;600004;-27
2024/02/18 01:05:31;;;;;;;8.60;5.60;;;;;;;8.75;81.05;99619.23;105189;1268;61158;-27
2024/02/18 01:07:59;;;;;;;9.20;6.40;;;;;;;8.77;80.91;99621.73;104933;1264;61143;-27
2024/02/18 01:10:27;;;;;;;8.00;6.80;;;;;;;8.61;81.13;99626.52;105134;1270;72225;-27
2024/02/18 01:12:55;;;;;;;8.70;5.30;;;;;;;8.32;82.27;99628.01;108769;1264;73012;-28
2024/02/18 01:15:23;;;;;;;8.70;5.50;;;;;;;8.56;80.75;99624.23;108668;1264;72705;-28
2024/02/18 01:17:51;;;;;;;6.70;4.60;;;;;;;8.63;79.82;99622.98;108762;1263;230572;-28
2024/02/18 01:20:19;;;;;;;6.30;4.70;;;;;;;8.69;79.18;99627.44;108917;1262;59992;-28
2024/02/18 01:22:47;;;;;;;6.00;4.80;;;;;;;8.34;80.09;99632.18;108923;1263;71251;-28
2024/02/18 01:25:14;;;;;;;4.80;3.90;;;;;;;8.25;80.48;99640.02;108917;1263;73687;-28
2024/02/18 01:27:43;;;;;;;4.80;3.70;;;;;;;8.51;79.24;99642.20;108831;1266;71409;-28
2024/02/18 01:30:11;;;;;;;3.70;3.20;;;;;;;8.49;79.13;99640.95;108774;1262;59164;-28
2024/02/18 01:32:39;;;;;;;5.30;3.90;;;;;;;8.36;79.43;99642.98;109327;1254;58734;-28
2024/02/18 01:35:07;;;;;;;5.80;3.60;;;;;;;8.15;79.98;99646.83;109296;1254;73075;-28
2024/02/18 01:37:35;;;;;;;6.40;3.00;;;;;;;7.86;81.05;99645.86;109202;1254;74782;-28
2024/02/18 01:40:03;;;;;;;4.70;2.80;;;;;;;8.34;79.20;99648.84;109272;1254;72597;-28
2024/02/18 01:42:31;;;;;;;4.30;3.00;;;;;;;8.40;78.23;99653.98;109102;1255;59919;-29
2024/02/18 01:44:59;;;;;;;3.00;2.50;;;;;;;8.32;77.82;99663.42;109294;1254;60093;-29
2024/02/18 01:47:27;;;;;;;5.80;2.50;;;;;;;7.73;79.78;99667.70;109167;1254;73078;-29
2024/02/18 01:49:54;;;;;;;3.10;2.30;;;;;;;7.60;79.08;99665.17;109190;1254;72870;-29
2024/02/18 01:52:22;;;;;;;2.90;2.20;;;;;;;7.44;79.15;99670.11;109268;1254;71362;-28
2024/02/18 01:54:50;;;;;;;3.40;1.80;;;;;;;7.44;77.48;99670.77;109148;1255;58906;-29
2024/02/18 01:57:18;;;;;;;2.50;1.80;;;;;;;7.60;76.75;99678.66;109151;1254;60013;-29
2024/02/18 01:59:46;;;;;;;1.50;1.30;;;;;;;7.64;75.85;99683.23;109177;1254;73030;-29
2024/02/18 02:02:13;;;;;;;2.00;1.30;;;;;;;7.13;76.53;99688.95;109272;1254;73160;-29
2024/02/18 02:04:41;;;;;;;1.60;1.10;;;;;;;7.10;76.52;99696.35;109262;1255;72668;-29
2024/02/18 02:07:09;;;;;;;2.30;1.10;;;;;;;7.20;74.58;99688.69;109280;1257;60004;-29
2024/02/18 02:09:37;;;;;;;2.90;0.90;;;;;;;7.17;72.88;99684.23;109134;1254;58899;-29
2024/02/18 02:12:05;;;;;;;1.90;0.80;;;;;;;7.35;72.34;99699.30;109145;1254;72994;-29
2024/02/18 02:14:33;;;;;;;1.40;1.10;;;;;;;6.93;73.35;99703.54;109298;1254;74289;-29
2024/02/18 02:17:01;;;;;;;1.60;1.10;;;;;;;6.87;73.27;99700.38;109257;1257;71434;-29
2024/02/18 02:19:28;;;;;;;0.80;0.80;;;;;;;6.81;73.63;99704.70;109261;1257;60209;-29
2024/02/18 02:21:56;;;;;;;0.80;0.70;;;;;;;6.73;74.47;99711.39;109276;1254;60445;-29
2024/02/18 02:24:24;;;;;;;1.40;0.90;;;;;;;6.88;73.49;99716.93;109336;1255;73124;-28
2024/02/18 02:26:53;;;;;;;1.90;1.40;;;;;;;7.07;72.81;99723.14;109291;1257;73138;-29
2024/02/18 02:29:21;;;;;;;1.60;1.20;;;;;;;7.22;72.31;99725.75;109082;1257;71876;-28
2024/02/18 02:31:49;;;;;;;2.60;1.20;;;;;;;6.93;73.12;99724.94;109112;1257;59251;-28
2024/02/18 02:34:17;;;;;;;1.30;0.90;;;;;;;6.87;72.60;99723.00;109267;1257;59047;-28
2024/02/18 02:36:46;;;;;;;1.80;1.00;;;;;;;6.74;73.50;99721.83;109130;1257;72087;-29
2024/02/18 02:39:14;;;;;;;0.90;0.80;;;;;;;7.05;72.21;99723.61;109225;1260;74370;-28
2024/02/18 02:41:42;;;;;;;1.10;0.80;;;;;;;7.03;71.41;99725.41;109265;1256;72603;-28
2024/02/18 02:44:11;;;;;;;0.50;0.50;;;;;;;7.53;69.94;99728.14;109236;1257;58767;-28
2024/02/18 02:46:39;;;;;;;0.60;0.60;;;;;;;7.42;70.25;99736.35;109156;1257;58720;-28
2024/02/18 02:49:07;;;;;;;1.90;1.10;;;;;;;7.34;70.65;99738.36;109227;1257;73017;-28
2024/02/18 02:51:34;;;;;;;0.70;0.60;;;;;;;7.32;71.02;99745.36;109259;1257;74268;-28
2024/02/18 02:54:02;;;;;;;1.20;0.90;;;;;;;7.03;71.65;99742.33;109233;1257;72709;-28
2024/02/18 02:56:30;;;;;;;0.60;0.60;;;;;;;7.04;72.29;99749.05;109230;1257;60894;-28
2024/02/18 02:58:58;;;;;;;0.40;0.40;;;;;;;7.43;70.78;99750.83;109276;1257;58785;-28
2024/02/18 03:01:25;;;;;;;0.50;0.40;;;;;;;7.77;69.67;99753.20;109145;1257;72183;-28
2024/02/18 03:03:53;;;;;;;0.60;0.50;;;;;;;7.46;70.61;99750.65;109253;1256;74284;-29
2024/02/18 03:06:21;;;;;;;0.70;0.70;;;;;;;6.99;72.14;99760.17;109220;1258;72497;-28
2024/02/18 03:08:49;;;;;;;1.80;0.80;;;;;;;6.63;73.58;99754.87;109200;1257;60055;-28
2024/02/18 03:11:17;;;;;;;0.80;0.50;;;;;;;6.48;73.59;99758.21;109266;1256;58790;-28
2024/02/18 03:13:45;;;;;;;0.70;0.70;;;;;;;6.63;73.75;99767.13;109246;1256;73040;-28
2024/02/18 03:16:12;;;;;;;1.00;0.70;;;;;;;6.50;73.24;99765.70;109252;1260;74306;-28
2024/02/18 03:18:43;;;;;;;1.00;0.70;;;;;;;6.80;72.22;99769.13;109254;1256;72675;-28
2024/02/18 03:21:12;;;;;;;1.20;1.10;;;;;;;6.39;73.25;99770.63;109271;1257;58867;-28
2024/02/18 03:23:40;;;;;;;2.90;1.60;;;;;;;6.56;72.87;99775.58;109246;1257;60072;-28
2024/02/18 03:26:07;;;;;;;1.50;1.20;;;;;;;6.18;74.13;99777.89;109114;1257;73516;-28
2024/02/18 03:28:35;;;;;;;0.50;0.50;;;;;;;6.01;75.33;99779.27;109131;1257;74815;-28
2024/02/18 03:31:03;;;;;;;0.40;0.40;;;;;;;6.44;74.87;99782.38;109061;1257;71701;-28
2024/02/18 03:33:31;;;;;;;1.10;0.70;;;;;;;6.68;72.66;99782.17;109069;1260;58857;-28
2024/02/18 03:35:58;;;;;;;3.10;0.90;;;;;;;6.20;75.05;99782.81;109125;1262;60056;-28
2024/02/18 03:38:26;;;;;;;0.80;0.60;;;;;;;6.14;75.49;99783.64;109122;1257;73018;-27
2024/02/18 03:40:54;;;;;;;0.80;0.70;;;;;;;6.14;75.60;99787.79;109100;1257;74776;-28
2024/02/18 03:43:22;;;;;;;1.60;0.80;;;;;;;6.01;75.74;99787.00;109090;1257;72654;-28
2024/02/18 03:45:49;;;;;;;0.50;0.50;;;;;;;6.34;74.62;99789.35;109085;1259;60050;-28
2024/02/18 03:48:17;;;;;;;0.80;0.70;;;;;;;6.39;74.05;99791.48;109132;1257;58766;-25
2024/02/18 03:50:45;;;;;;;0.40;0.40;;;;;;;6.35;73.95;99789.77;109122;1257;73006;-25
2024/02/18 03:53:12;;;;;;;1.00;0.80;;;;;;;6.19;74.87;99789.23;109129;1257;73108;-25
2024/02/18 03:55:40;;;;;;;0.80;0.70;;;;;;;6.22;74.31;99790.66;109108;1260;71588;-29
2024/02/18 03:58:10;;;;;;;0.80;0.70;;;;;;;6.45;73.71;99797.20;109078;1257;59199;-25
2024/02/18 04:00:38;;;;;;;1.20;0.60;;;;;;;6.22;74.02;99794.42;109104;1263;58825;-25
2024/02/18 04:03:05;;;;;;;0.70;0.50;;;;;;;6.61;73.06;99801.39;109092;1260;72996;-25
2024/02/18 04:05:33;;;;;;;0.60;0.50;;;;;;;6.38;73.16;99804.83;109063;1257;73064;-25
2024/02/18 04:08:01;;;;;;;0.80;0.50;;;;;;;6.56;72.32;99805.79;109093;1256;72479;-25
2024/02/18 04:10:28;;;;;;;1.60;0.80;;;;;;;6.36;72.55;99809.59;109098;1257;60027;-25
2024/02/18 04:12:56;;;;;;;0.80;0.60;;;;;;;6.31;73.00;99811.89;109114;1257;60024;-25
2024/02/18 04:15:24;;;;;;;0.70;0.70;;;;;;;6.10;73.88;99811.76;109119;1257;71799;-25
2024/02/18 04:17:53;;;;;;;0.40;0.40;;;;;;;6.51;72.94;99811.23;109134;1257;74347;-25
2024/02/18 04:20:21;;;;;;;0.80;0.70;;;;;;;6.75;71.65;99813.56;109053;1257;71842;-25
2024/02/18 04:22:49;;;;;;;0.70;0.70;;;;;;;6.65;71.80;99814.96;109104;1257;58922;-25
2024/02/18 04:25:17;;;;;;;0.80;0.60;;;;;;;6.37;72.78;99816.09;109083;1263;59983;-25
2024/02/18 04:27:44;;;;;;;0.60;0.60;;;;;;;6.33;73.16;99812.83;109079;1257;73478;-25
2024/02/18 04:30:13;;;;;;;1.00;0.70;;;;;;;6.02;73.96;99812.64;109115;1257;74277;-25
2024/02/18 04:32:40;;;;;;;0.60;0.60;;;;;;;6.12;74.15;99822.52;109060;1262;72619;-25
2024/02/18 04:35:08;;;;;;;0.60;0.60;;;;;;;6.18;73.94;99818.23;109078;1257;60049;-25
2024/02/18 04:37:36;;;;;;;0.50;0.50;;;;;;;6.41;73.02;99819.70;109151;1257;60170;-25
2024/02/18 04:40:04;;;;;;;1.20;0.80;;;;;;;6.42;72.76;99817.52;109110;1261;72998;-25
2024/02/18 04:42:32;;;;;;;0.50;0.50;;;;;;;6.07;74.03;99819.30;109104;1257;73247;-25
2024/02/18 04:45:00;;;;;;;1.20;0.60;;;;;;;5.94;74.77;99827.88;109063;1257;72667;-25
2024/02/18 04:47:27;;;;;;;0.90;0.60;;;;;;;5.79;74.94;99824.08;109133;1257;60021;-25
2024/02/18 04:49:55;;;;;;;0.70;0.50;;;;;;;6.06;74.01;99819.88;109102;1257;58847;-25
2024/02/18 04:52:23;;;;;;;0.60;0.50;;;;;;;6.32;72.70;99821.83;109101;1257;70799;-25
2024/02/18 04:54:51;;;;;;;0.60;0.50;;;;;;;6.35;72.26;99827.89;109116;1257;74313;-25
2024/02/18 04:57:18;;;;;;;0.50;0.40;;;;;;;5.94;73.67;99824.91;109093;1257;72639;-25
2024/02/18 04:59:46;;;;;;;0.70;0.60;;;;;;;5.76;74.68;99829.06;109080;1257;60080;-25
2024/02/18 05:02:14;;;;;;;1.30;0.50;;;;;;;5.46;75.83;99829.15;109124;1257;58806;-26
2024/02/18 05:04:42;;;;;;;1.20;0.70;;;;;;;5.63;75.75;99832.12;108992;1257;73507;-28
2024/02/18 05:07:10;;;;;;;0.50;0.50;;;;;;;5.88;74.91;99838.34;109133;1257;74293;-27
2024/02/18 05:09:39;;;;;;;1.70;0.60;;;;;;;6.11;74.15;99840.83;109050;1257;71401;-27
2024/02/18 05:12:07;;;;;;;0.50;0.50;;;;;;;5.70;76.00;99845.19;108987;1257;58903;-27
2024/02/18 05:14:34;;;;;;;0.70;0.70;;;;;;;5.53;77.38;99846.73;109128;1257;59972;-28
2024/02/18 05:17:02;;;;;;;0.60;0.50;;;;;;;5.77;77.35;99851.96;109105;1257;73783;-28
2024/02/18 05:19:30;;;;;;;0.90;0.70;;;;;;;5.45;76.25;99851.04;109116;1257;73307;-25
2024/02/18 05:21:58;;;;;;;1.30;1.00;;;;;;;4.78;78.45;99851.34;109049;1257;72696;-26
2024/02/18 05:24:26;;;;;;;2.30;1.00;;;;;;;5.21;77.81;99858.54;109067;1260;60045;-26
2024/02/18 05:26:54;;;;;;;1.00;0.80;;;;;;;4.96;78.57;99864.99;109061;1257;58774;-26
2024/02/18 05:29:22;;;;;;;1.20;0.90;;;;;;;4.76;78.62;99860.19;109066;1257;73884;-26
2024/02/18 05:31:50;;;;;;;1.70;0.80;;;;;;;4.77;78.07;99868.75;109069;1257;73198;-26
2024/02/18 05:34:18;;;;;;;1.00;0.80;;;;;;;5.08;76.43;99876.88;108976;1257;71064;-26
2024/02/18 05:36:46;;;;;;;1.40;0.90;;;;;;;4.75;75.63;99868.67;109073;1259;58846;-25
2024/02/18 05:39:14;;;;;;;0.80;0.50;;;;;;;4.80;74.46;99879.11;109071;1257;60061;-25
2024/02/18 05:41:42;;;;;;;1.00;0.80;;;;;;;4.29;75.44;99882.51;109054;1257;73968;-25
2024/02/18 05:44:10;;;;;;;1.90;0.80;;;;;;;3.93;76.16;99884.64;108978;1260;73067;-25
2024/02/18 05:46:38;;;;;;;0.40;0.40;;;;;;;4.25;75.42;99890.91;109031;1257;70517;-25
2024/02/18 05:49:06;;;;;;;3.10;0.90;;;;;;;4.47;74.38;99898.42;108961;1258;59257;-25
2024/02/18 05:51:34;;;;;;;0.90;0.70;;;;;;;4.68;73.35;99903.59;109130;1257;60037;-25
2024/02/18 05:54:01;;;;;;;1.00;0.60;;;;;;;4.62;73.34;99913.95;109018;1257;72659;-25
2024/02/18 05:56:29;;;;;;;0.80;0.60;;;;;;;4.00;75.54;99913.43;109050;1257;74390;-25
2024/02/18 05:58:57;;;;;;;0.60;0.50;;;;;;;4.02;76.25;99914.71;108960;1257;71493;-25
2024/02/18 06:01:26;;;;;;;1.30;0.60;;;;;;;4.44;74.46;99923.83;108939;1260;60035;-25
2024/02/18 06:03:54;;;;;;;1.50;1.00;;;;;;;4.51;73.75;99921.83;108933;1260;60268;-25
2024/02/18 06:06:21;;;;;;;2.00;1.60;;;;;;;4.03;75.45;99928.42;108970;1260;71591;-25
2024/02/18 06:08:49;;;;;;;4.30;1.90;;;;;;;4.00;75.47;99931.45;108973;1260;73179;-25
2024/02/18 06:11:17;;;;;;;2.30;1.60;;;;;;;4.06;75.21;99932.59;108946;1259;72646;-25
2024/02/18 06:13:47;;;;;;;1.20;0.90;;;;;;;3.90;76.07;99936.66;108934;1259;60861;-25
2024/02/18 06:16:15;;;;;;;1.40;0.90;;;;;;;4.62;74.57;99943.51;108944;1259;60199;-25
2024/02/18 06:18:43;;;;;;;2.20;1.10;;;;;;;4.78;73.45;99943.55;109003;1260;73839;-25
2024/02/18 06:21:21;;;;;;;1.70;1.30;;;;;;;4.17;75.21;99939.54;109137;1256;74390;-25
2024/02/18 06:23:51;;;;;;;3.70;2.20;;;;;;;4.17;75.80;99949.69;109015;1256;72473;-25
2024/02/18 06:26:18;;;;;;;1.00;0.80;;;;;;;4.15;75.59;99951.65;109109;1257;59270;-25
2024/02/18 06:28:47;;;;;;;2.00;1.10;;;;;;;4.30;75.63;99956.73;109147;1257;59252;-25
2024/02/18 06:31:15;;;;;;;1.60;0.80;;;;;;;4.47;72.90;99956.05;109117;1256;73833;-25
2024/02/18 06:33:44;;;;;;;0.70;0.40;;;;;;;4.39;71.33;99956.34;109104;1257;73038;-25
2024/02/18 06:36:13;;;;;;;0.70;0.50;;;;;;;3.85;71.98;99961.08;109112;1257;72698;-25
2024/02/18 06:38:44;;;;;;;1.10;0.80;;;;;;;3.89;72.15;99960.57;109139;1257;58845;-25
2024/02/18 06:41:12;;;;;;;1.40;0.90;;;;;;;3.43;73.54;99961.65;109009;1257;60019;-25
2024/02/18 06:43:40;;;;;;;1.70;1.10;;;;;;;3.29;74.32;99966.27;109087;1257;72602;-25
2024/02/18 06:46:07;;;;;;;1.80;1.10;;;;;;;3.14;74.18;99966.78;109135;1257;74536;-25
2024/02/18 06:48:39;;;;;;;0.90;0.60;;;;;;;3.51;72.10;99973.36;109106;1257;72424;-25
2024/02/18 06:51:07;;;;;;;1.00;0.70;;;;;;;3.57;70.85;99971.94;109098;1257;60082;-25
2024/02/18 06:53:35;;;;;;;1.20;0.70;;;;;;;3.29;71.35;99977.92;109141;1257;60167;-25
2024/02/18 06:56:03;;;;;;;3.10;1.50;;;;;;;3.10;72.24;99978.95;109121;1257;72268;-25
2024/02/18 06:58:31;;;;;;;2.40;1.20;;;;;;;3.18;71.57;99983.82;109113;1256;74520;-25
2024/02/18 07:00:59;;;;;;;2.00;1.40;;;;;;;3.17;72.19;99991.59;109093;1256;72681;-26
2024/02/18 07:03:27;;;;;;;0.70;0.50;;;;;;;3.81;70.45;99990.26;109178;1256;58890;-25
2024/02/18 07:05:55;;;;;;;4.40;2.00;;;;;;;3.87;69.46;99994.18;109276;1256;58720;-25
2024/02/18 07:08:23;;;;;;;8.00;3.30;;;;;;;3.61;70.37;100004.73;109287;1256;72185;-26
2024/02/18 07:10:51;;;;;;;3.80;1.30;;;;;;;3.45;70.74;100005.18;109288;1255;72381;-26
2024/02/18 07:13:19;;;;;;;9.80;5.10;;;;;;;3.57;70.44;100007.30;109181;1256;72698;-26
2024/02/18 07:15:47;;;;;;;8.20;3.60;;;;;;;3.58;71.02;100005.89;109387;1255;59285;-26
2024/02/18 07:18:15;;;;;;;7.50;3.80;;;;;;;3.30;72.45;100017.04;109307;1256;58757;-26
2024/02/18 07:20:43;;;;;;;2.00;0.90;;;;;;;3.38;72.82;100016.06;109125;1255;72329;-26
2024/02/18 07:23:11;;;;;;;5.50;2.50;;;;;;;3.41;72.81;100013.53;109314;1257;74438;-26
2024/02/18 07:25:42;;;;;;;3.00;0.90;;;;;;;3.41;74.12;100029.33;109160;1255;72671;-26
2024/02/18 07:28:11;;;;;;;31.00;13.80;;;;;;;3.21;75.49;100030.91;109189;1257;58744;-26
2024/02/18 07:30:42;;;;;;;2.60;1.70;;;;;;;3.04;76.20;100031.66;109053;1257;59958;-26
2024/02/18 07:33:12;;;;;;;1.00;0.60;;;;;;;3.07;76.61;100024.72;109121;1256;73846;-26
2024/02/18 07:35:43;;;;;;;2.60;1.70;;;;;;;2.80;78.22;100031.94;109016;1256;74579;-26
2024/02/18 07:38:13;;;;;;;1.20;0.80;;;;;;;2.97;77.87;100027.26;109096;1256;72676;-26
2024/02/18 07:40:43;;;;;;;1.00;0.80;;;;;;;3.15;76.82;100026.48;109065;1258;60074;-27
2024/02/18 07:43:14;;;;;;;1.30;0.90;;;;;;;3.29;76.34;100028.23;109138;1256;58726;-27
2024/02/18 07:45:46;;;;;;;2.10;0.90;;;;;;;3.28;76.52;100034.27;109121;1257;73035;-27
2024/02/18 07:48:16;;;;;;;2.20;1.20;;;;;;;3.30;77.35;100035.39;109159;1256;73058;-27
2024/02/18 07:50:46;;;;;;;2.40;1.60;;;;;;;3.57;76.21;100032.55;109004;1257;73805;-27
2024/02/18 07:53:16;;;;;;;3.90;2.40;;;;;;;3.48;76.12;100043.17;109080;1257;60082;-27
2024/02/18 07:55:46;;;;;;;2.40;1.50;;;;;;;3.59;75.64;100049.65;109118;1256;58784;-28
2024/02/18 07:58:17;;;;;;;3.40;1.30;;;;;;;3.18;76.22;100047.12;108971;1256;72584;-27
2024/02/18 08:00:47;;;;;;;3.20;1.80;;;;;;;3.28;75.98;100057.42;108949;1256;74489;-28
2024/02/18 08:03:18;;;;;;;2.30;1.20;;;;;;;2.83;76.41;100054.31;109053;1256;71721;-27
2024/02/18 08:05:48;;;;;;;1.20;1.00;;;;;;;2.92;76.90;100059.86;109099;1257;60216;-27
2024/02/18 08:08:18;;;;;;;0.50;0.50;;;;;;;3.30;75.45;100061.52;109101;1256;58815;-27
2024/02/18 08:10:49;;;;;;;0.80;0.60;;;;;;;3.41;75.32;100064.90;109037;1257;72867;-27
2024/02/18 08:13:18;;;;;;;0.30;0.30;;;;;;;3.31;73.82;100059.23;109082;1256;73598;-27
2024/02/18 08:15:49;;;;;;;0.60;0.50;;;;;;;3.40;75.22;100069.22;109107;1256;71766;-27
2024/02/18 08:18:19;;;;;;;0.90;0.50;;;;;;;3.30;74.64;100069.73;109089;1256;60900;-28
2024/02/18 08:20:50;;;;;;;0.70;0.50;;;;;;;3.98;73.14;100072.78;109098;1256;60196;-27
2024/02/18 08:23:21;;;;;;;0.50;0.40;;;;;;;3.80;72.42;100068.98;109180;1256;73851;-27
2024/02/18 08:25:51;;;;;;;1.20;0.60;;;;;;;3.35;71.77;100079.68;109111;1257;73024;-27
2024/02/18 08:35:54;;;;;;;0.80;0.50;;;;;;;2.96;70.96;100095.25;102662;1292;599154;-25
2024/02/18 08:38:22;;;;;;;0.40;0.40;;;;;;;3.08;69.91;100100.50;104873;1269;61206;-26
2024/02/18 08:40:50;;;;;;;0.40;0.40;;;;;;;3.40;67.56;100095.11;104784;1270;61604;-25
2024/02/18 08:43:18;;;;;;;0.30;0.30;;;;;;;3.64;67.07;100094.45;104861;1266;72213;-26
2024/02/18 08:45:46;;;;;;;0.40;0.40;;;;;;;3.16;68.88;100098.50;105001;1269;74397;-26
2024/02/18 08:48:14;;;;;;;0.70;0.50;;;;;;;2.94;69.81;100105.61;105073;1269;70740;-26
2024/02/18 08:50:42;;;;;;;0.50;0.50;;;;;;;3.09;69.51;100103.04;105011;1262;195085;-26
2024/02/18 08:53:09;;;;;;;0.60;0.50;;;;;;;2.81;70.16;100107.73;105148;1268;61096;-26
2024/02/18 08:55:38;;;;;;;1.10;0.80;;;;;;;2.75;69.85;100106.20;105199;1262;71227;-26
2024/02/18 08:58:05;;;;;;;0.90;0.50;;;;;;;3.13;68.30;100107.38;105030;1268;74310;-26
2024/02/18 09:00:33;;;;;;;0.50;0.40;;;;;;;3.31;67.18;100112.27;104978;1266;72530;-26
2024/02/18 09:03:01;;;;;;;0.50;0.50;;;;;;;3.63;65.67;100109.96;105094;1267;61180;-26
2024/02/18 09:05:29;;;;;;;0.40;0.40;;;;;;;3.54;64.18;100106.81;105193;1264;61150;-25
2024/02/18 09:07:57;;;;;;;1.10;0.70;;;;;;;3.28;66.08;100120.59;105112;1269;73078;-25
2024/02/18 09:10:25;;;;;;;0.60;0.40;;;;;;;3.71;66.50;100115.35;105181;1263;74366;-26
2024/02/18 09:19:52;;;;;;;0.50;0.50;;;;;;;3.89;67.02;100122.26;103143;1288;600155;-28
2024/02/18 09:22:20;;;;;;;0.70;0.40;;;;;;;3.58;68.00;100124.20;104815;1266;61090;-28
2024/02/18 09:24:47;;;;;;;0.40;0.40;;;;;;;3.38;67.27;100127.63;104840;1267;61084;-28
2024/02/18 09:34:52;;;;;;;0.50;0.50;;;;;;;3.19;69.95;100142.36;102768;1289;599425;-27
2024/02/18 09:37:39;;;;;;;0.60;0.50;;;;;;;3.25;69.46;100151.74;105008;1269;61257;-28
2024/02/18 09:40:08;;;;;;;0.40;0.40;;;;;;;3.85;68.08;100153.81;104825;1273;61212;-28
2024/02/18 09:42:40;;;;;;;0.50;0.50;;;;;;;3.51;67.99;100151.58;104929;1267;72271;-28
2024/02/18 09:45:14;;;;;;;0.70;0.50;;;;;;;2.77;70.38;100156.24;104811;1267;74336;-28
2024/02/18 09:47:43;;;;;;;1.80;0.80;;;;;;;2.64;72.19;100155.58;104662;1270;197966;-28
2024/02/18 09:50:11;;;;;;;1.40;0.70;;;;;;;2.43;73.25;100159.32;104949;1269;61141;-28
2024/02/18 09:52:44;;;;;;;2.90;1.70;;;;;;;2.58;72.51;100162.64;105154;1269;61757;-28
2024/02/18 09:55:12;;;;;;;1.00;0.80;;;;;;;2.75;71.87;100165.20;105237;1264;71929;-28
2024/02/18 09:57:40;;;;;;;0.60;0.60;;;;;;;2.58;70.22;100160.75;105163;1264;77089;-28
2024/02/18 10:00:08;;;;;;;0.90;0.70;;;;;;;2.94;69.29;100162.71;105102;1264;72623;-28
2024/02/18 10:02:36;;;;;;;0.80;0.60;;;;;;;2.97;68.25;100164.18;105182;1264;61243;-28
2024/02/18 10:05:09;;;;;;;3.20;1.00;;;;;;;3.06;67.58;100166.13;104962;1265;61057;-26
2024/02/18 10:07:38;;;;;;;1.40;1.00;;;;;;;2.67;67.32;100162.18;105185;1264;73059;-27
2024/02/18 10:10:07;;;;;;;1.60;1.10;;;;;;;2.56;68.00;100168.52;105886;1251;74319;-26
2024/02/18 10:20:14;;;;;;;0.80;0.70;;;;;;;2.67;65.78;100167.16;102746;1292;600630;-27
2024/02/18 10:22:42;;;;;;;0.90;0.70;;;;;;;2.21;66.49;100153.77;104918;1266;61139;-28
2024/02/18 10:25:10;;;;;;;1.80;0.70;;;;;;;2.06;66.94;100167.56;104860;1266;61081;-28
2024/02/18 10:27:39;;;;;;;1.00;0.60;;;;;;;2.19;67.43;100164.29;104839;1265;72283;-28
2024/02/18 10:30:07;;;;;;;1.10;0.80;;;;;;;2.10;67.82;100173.46;104864;1271;72057;-28
2024/02/18 10:32:35;;;;;;;1.10;0.90;;;;;;;1.93;67.84;100176.48;104867;1266;75461;-28
2024/02/18 10:42:48;;;;;;;3.40;1.00;;;;;;;2.94;64.55;100181.92;102729;1294;599829;-26
2024/02/18 10:53:05;;;;;;;0.90;0.80;;;;;;;2.26;65.56;100171.14;102687;1294;599440;-27
2024/02/18 10:55:40;;;;;;;0.90;0.70;;;;;;;2.15;65.82;100173.48;104820;1271;61196;-26
2024/02/18 11:05:21;;;;;;;0.60;0.40;;;;;;;3.01;62.06;100173.31;102738;1292;600987;-28
2024/02/18 11:07:49;;;;;;;0.60;0.60;;;;;;;2.95;60.50;100174.88;104842;1266;61126;-27
2024/02/18 11:10:17;;;;;;;0.70;0.70;;;;;;;2.60;62.02;100167.39;104914;1266;61273;-28
2024/02/18 11:12:46;;;;;;;0.60;0.60;;;;;;;2.42;62.64;100169.27;104805;1274;73937;-28
2024/02/18 11:15:14;;;;;;;1.50;1.10;;;;;;;2.36;62.84;100170.31;104799;1272;73069;-28
2024/02/18 11:17:42;;;;;;;1.50;1.10;;;;;;;2.35;62.78;100170.33;104823;1266;72703;-28
2024/02/18 11:20:11;;;;;;;2.10;1.00;;;;;;;2.54;62.56;100171.31;105056;1263;167936;-28
2024/02/18 11:22:39;;;;;;;4.50;2.30;;;;;;;2.32;62.30;100163.40;105045;1265;62707;-28
2024/02/18 11:25:08;;;;;;;0.70;0.70;;;;;;;2.47;61.89;100165.03;104933;1264;70629;-28
2024/02/18 11:27:37;;;;;;;1.20;0.70;;;;;;;2.25;61.88;100168.23;105026;1268;75175;-28
2024/02/18 11:30:05;;;;;;;0.90;0.60;;;;;;;2.22;62.35;100169.86;104919;1263;75460;-28
2024/02/18 11:32:33;;;;;;;0.60;0.60;;;;;;;2.42;62.11;100170.83;105213;1263;61147;-28
2024/02/18 11:35:14;;;;;;;1.40;0.80;;;;;;;2.84;61.00;100174.02;105502;1262;61151;-28
2024/02/18 11:45:44;;;;;;;2.10;0.60;;;;;;;2.33;60.30;100170.56;102555;1290;615068;-26
2024/02/18 11:48:12;;;;;;;3.10;0.90;;;;;;;2.09;60.98;100183.27;105084;1269;61344;-26
2024/02/18 11:50:39;;;;;;;1.80;0.70;;;;;;;1.98;61.55;100183.58;104885;1265;61120;-26
2024/02/18 11:53:06;;;;;;;0.90;0.70;;;;;;;1.84;61.88;100184.44;105219;1264;74037;-26
2024/02/18 11:55:34;;;;;;;0.70;0.60;;;;;;;1.86;62.67;100192.95;105155;1264;76194;-26
2024/02/18 11:58:01;;;;;;;1.40;1.20;;;;;;;2.07;61.60;100188.61;105058;1264;211290;-26
2024/02/18 12:00:28;;;;;;;2.40;1.50;;;;;;;1.69;61.92;100185.19;105081;1264;61064;-26
2024/02/18 12:02:56;;;;;;;2.70;1.40;;;;;;;1.92;61.19;100189.19;105096;1264;62021;-26
2024/02/18 12:05:23;;;;;;;2.70;1.40;;;;;;;1.93;61.82;100186.77;105050;1266;73589;-26
2024/02/18 12:07:54;;;;;;;2.70;1.60;;;;;;;2.23;61.80;100192.29;105227;1266;75421;-26
2024/02/18 12:10:22;;;;;;;1.80;1.40;;;;;;;2.58;59.72;100180.28;105072;1264;75197;-26
2024/02/18 12:12:50;;;;;;;2.40;1.40;;;;;;;2.63;59.72;100185.98;105605;1255;61055;-26
2024/02/18 12:15:20;;;;;;;3.00;1.70;;;;;;;2.43;60.25;100187.58;105627;1260;61820;-26
2024/02/18 12:17:48;;;;;;;2.70;1.80;;;;;;;2.80;59.63;100183.56;105366;1263;74212;-27
2024/02/18 12:20:26;;;;;;;8.00;3.60;;;;;;;2.79;60.37;100191.48;105630;1257;73107;-26
2024/02/18 12:22:57;;;;;;;7.90;4.20;;;;;;;2.73;60.82;100198.35;105605;1260;74367;-26
2024/02/18 12:25:24;;;;;;;6.00;3.30;;;;;;;2.11;59.87;100193.80;105674;1256;61065;-26
2024/02/18 12:27:52;;;;;;;2.60;1.70;;;;;;;2.22;60.94;100189.74;105647;1260;61051;-25
2024/02/18 12:30:22;;;;;;;4.40;2.60;;;;;;;2.29;60.07;100189.18;105697;1257;73027;-26
2024/02/18 12:32:50;;;;;;;2.60;1.30;;;;;;;2.01;59.46;100184.14;105663;1257;74658;-25
2024/02/18 12:35:19;;;;;;;9.20;5.20;;;;;;;2.19;60.34;100185.20;105661;1260;74400;-25
2024/02/18 12:37:47;;;;;;;1.90;1.00;;;;;;;2.16;60.91;100183.22;105600;1258;61375;-26
2024/02/18 12:40:15;;;;;;;1.10;0.80;;;;;;;2.39;59.28;100176.91;105550;1263;61146;-25
2024/02/18 12:42:42;;;;;;;1.30;1.10;;;;;;;2.34;59.81;100184.06;105645;1260;73935;-25
2024/02/18 12:45:29;;;;;;;1.60;0.80;;;;;;;2.23;59.96;100180.79;105457;1262;74372;-26
2024/02/18 12:48:13;;;;;;;3.30;1.40;;;;;;;2.28;60.26;100179.96;105339;1257;72712;-25
2024/02/18 12:50:42;;;;;;;0.60;0.60;;;;;;;2.22;59.57;100181.35;105473;1262;61158;-25
2024/02/18 12:53:09;;;;;;;2.00;1.10;;;;;;;1.99;59.08;100179.08;105191;1257;61063;-25
2024/02/18 12:55:38;;;;;;;0.80;0.70;;;;;;;2.05;59.28;100180.27;105395;1263;71863;-27
2024/02/18 12:58:05;;;;;;;0.50;0.50;;;;;;;2.13;58.48;100179.37;105559;1258;74741;-27